Time,TemperatureF,DewpointF,PressureIn,WindDirection,WindDirectionDegrees,WindSpeedMPH,WindSpeedGustMPH,Humidity,HourlyPrecipIn,Conditions,Clouds,dailyrainin,SoftwareType,DateUTC
2013-01-21 00:00:00,24.3,5.5,29.94,SSE,158,0.0,1.0,44,0.00,,BKN250,0.00,VWS V14.01,2013-01-21 05:00:00,
2013-01-21 00:05:00,24.2,5.9,29.94,SE,135,0.0,1.0,45,0.00,,BKN250,0.00,VWS V14.01,2013-01-21 05:05:00,
2013-01-21 00:10:00,24.2,6.4,29.94,SE,135,0.0,1.0,46,0.00,,BKN250,0.00,VWS V14.01,2013-01-21 05:10:00,
2013-01-21 00:15:00,24.1,5.8,29.94,SE,135,0.0,11.0,45,0.00,,BKN250,0.00,VWS V14.01,2013-01-21 05:15:00,
2013-01-21 00:20:00,24.1,5.8,29.94,ENE,68,0.0,11.0,45,0.00,,BKN250,0.00,VWS V14.01,2013-01-21 05:20:00,
2013-01-21 00:25:00,24.1,7.3,29.94,ENE,68,0.0,1.0,48,0.00,,BKN250,0.00,VWS V14.01,2013-01-21 05:25:00,
2013-01-21 00:30:00,23.9,6.1,29.94,ENE,68,0.0,1.0,46,0.00,,BKN250,0.00,VWS V14.01,2013-01-21 05:30:00,
2013-01-21 00:35:00,23.8,6.5,29.94,ENE,68,0.0,0.0,47,0.00,,BKN250,0.00,VWS V14.01,2013-01-21 05:35:00,
2013-01-21 00:40:00,23.8,5.6,29.94,East,90,0.0,2.0,45,0.00,,BKN250,0.00,VWS V14.01,2013-01-21 05:40:00,
2013-01-21 00:45:00,23.8,5.6,29.94,East,90,0.0,1.0,45,0.00,,BKN250,0.00,VWS V14.01,2013-01-21 05:45:00,
2013-01-21 00:50:00,23.7,6.4,29.94,East,90,0.0,1.0,47,0.00,,BKN250,0.00,VWS V14.01,2013-01-21 05:50:00,
2013-01-21 00:55:00,23.6,6.3,29.94,East,90,0.0,1.0,47,0.00,,BKN250,0.00,VWS V14.01,2013-01-21 05:55:00,
2013-01-21 01:00:00,23.5,5.8,29.95,East,90,0.0,1.0,46,0.00,,BKN250,0.00,VWS V14.01,2013-01-21 06:00:00,
2013-01-21 01:05:00,23.5,5.8,29.95,East,90,0.0,2.0,46,0.00,,BKN250,0.00,VWS V14.01,2013-01-21 06:05:00,
2013-01-21 01:10:00,23.5,5.8,29.95,ENE,68,0.0,1.0,46,0.00,,BKN250,0.00,VWS V14.01,2013-01-21 06:10:00,
2013-01-21 01:15:00,23.5,5.8,29.95,ENE,68,0.0,1.0,46,0.00,,BKN250,0.00,VWS V14.01,2013-01-21 06:15:00,
2013-01-21 01:20:00,23.5,6.2,29.95,ENE,68,0.0,1.0,47,0.00,,BKN250,0.00,VWS V14.01,2013-01-21 06:20:00,
2013-01-21 01:25:00,23.3,5.6,29.96,ENE,68,0.0,2.0,46,0.00,,BKN250,0.00,VWS V14.01,2013-01-21 06:25:00,
2013-01-21 01:30:00,23.3,6.1,29.96,ENE,68,0.0,1.0,47,0.00,,BKN250,0.00,VWS V14.01,2013-01-21 06:30:00,
2013-01-21 01:35:00,23.2,6.4,29.96,ENE,68,0.0,2.0,48,0.00,,BKN250,0.00,VWS V14.01,2013-01-21 06:35:00,
2013-01-21 01:40:00,23.1,6.8,29.96,ENE,68,0.0,1.0,49,0.00,,BKN250,0.00,VWS V14.01,2013-01-21 06:40:00,
2013-01-21 01:45:00,23.0,6.2,29.96,ENE,68,0.0,1.0,48,0.00,,BKN250,0.00,VWS V14.01,2013-01-21 06:45:00,
2013-01-21 01:50:00,23.0,6.2,29.97,ENE,68,0.0,0.0,48,0.00,,BKN250,0.00,VWS V14.01,2013-01-21 06:50:00,
2013-01-21 01:55:00,22.9,7.1,29.97,ENE,68,0.0,0.0,50,0.00,,BKN250,0.00,VWS V14.01,2013-01-21 06:55:00,
2013-01-21 02:00:00,22.8,6.5,29.97,ENE,68,0.0,0.0,49,0.00,,BKN250,0.00,VWS V14.01,2013-01-21 07:00:00,
2013-01-21 02:05:00,22.6,6.3,29.97,ENE,68,0.0,0.0,49,0.00,,BKN250,0.00,VWS V14.01,2013-01-21 07:05:00,
2013-01-21 02:10:00,22.5,6.7,29.97,ENE,68,0.0,0.0,50,0.00,,BKN250,0.00,VWS V14.01,2013-01-21 07:10:00,
2013-01-21 02:15:00,22.4,7.0,29.98,ENE,68,0.0,0.0,51,0.00,,BKN250,0.00,VWS V14.01,2013-01-21 07:15:00,
2013-01-21 02:20:00,22.2,7.3,29.98,ENE,68,0.0,0.0,52,0.00,,BKN250,0.00,VWS V14.01,2013-01-21 07:20:00,
2013-01-21 02:25:00,22.0,7.9,29.98,ENE,68,0.0,0.0,54,0.00,,BKN250,0.00,VWS V14.01,2013-01-21 07:25:00,
2013-01-21 02:30:00,21.9,9.0,29.98,ENE,68,0.0,0.0,57,0.00,,BKN250,0.00,VWS V14.01,2013-01-21 07:30:00,
2013-01-21 02:35:00,21.8,8.9,29.98,ENE,68,0.0,0.0,57,0.00,,BKN250,0.00,VWS V14.01,2013-01-21 07:35:00,
2013-01-21 02:40:00,21.8,9.3,29.98,ENE,68,0.0,0.0,58,0.00,,BKN250,0.00,VWS V14.01,2013-01-21 07:40:00,
2013-01-21 02:45:00,21.6,9.5,29.98,ENE,68,0.0,0.0,59,0.00,,BKN250,0.00,VWS V14.01,2013-01-21 07:45:00,
2013-01-21 02:50:00,21.4,9.7,29.98,ENE,68,0.0,0.0,60,0.00,,BKN250,0.00,VWS V14.01,2013-01-21 07:50:00,
2013-01-21 02:55:00,21.3,9.6,29.98,ENE,68,0.0,0.0,60,0.00,,BKN250,0.00,VWS V14.01,2013-01-21 07:55:00,
2013-01-21 03:00:00,21.1,9.8,29.99,ENE,68,0.0,0.0,61,0.00,,BKN250,0.00,VWS V14.01,2013-01-21 08:00:00,
2013-01-21 03:05:00,21.0,9.7,29.99,ENE,68,0.0,0.0,61,0.00,,BKN250,0.00,VWS V14.01,2013-01-21 08:05:00,
2013-01-21 03:10:00,21.0,9.7,29.99,ENE,68,0.0,0.0,61,0.00,,BKN250,0.00,VWS V14.01,2013-01-21 08:10:00,
2013-01-21 03:15:00,20.9,9.6,29.99,ENE,68,0.0,0.0,61,0.00,,BKN250,0.00,VWS V14.01,2013-01-21 08:15:00,
2013-01-21 03:20:00,20.8,9.9,30.00,ENE,68,0.0,0.0,62,0.00,,BKN250,0.00,VWS V14.01,2013-01-21 08:20:00,
2013-01-21 03:25:00,20.7,9.8,30.00,ENE,68,0.0,0.0,62,0.00,,BKN250,0.00,VWS V14.01,2013-01-21 08:25:00,
2013-01-21 03:30:00,20.6,9.7,30.00,ENE,68,0.0,0.0,62,0.00,,BKN250,0.00,VWS V14.01,2013-01-21 08:30:00,
2013-01-21 03:35:00,20.4,9.5,30.00,ENE,68,0.0,0.0,62,0.00,,BKN250,0.00,VWS V14.01,2013-01-21 08:35:00,
2013-01-21 03:40:00,20.2,9.6,30.00,ENE,68,0.0,0.0,63,0.00,,BKN250,0.00,VWS V14.01,2013-01-21 08:40:00,
2013-01-21 03:45:00,20.1,9.2,30.00,ENE,68,0.0,0.0,62,0.00,,BKN250,0.00,VWS V14.01,2013-01-21 08:45:00,
2013-01-21 03:50:00,19.9,9.4,30.00,ENE,68,0.0,0.0,63,0.00,,BKN250,0.00,VWS V14.01,2013-01-21 08:50:00,
2013-01-21 03:55:00,19.8,9.3,30.00,ENE,68,0.0,0.0,63,0.00,,BKN250,0.00,VWS V14.01,2013-01-21 08:55:00,
2013-01-21 04:00:00,19.7,9.2,30.00,ENE,68,0.0,0.0,63,0.00,,BKN250,0.00,VWS V14.01,2013-01-21 09:00:00,
2013-01-21 04:05:00,19.6,9.4,30.00,ENE,68,0.0,0.0,64,0.00,,BKN250,0.00,VWS V14.01,2013-01-21 09:05:00,
2013-01-21 04:10:00,19.5,9.3,30.00,ENE,68,0.0,0.0,64,0.00,,BKN250,0.00,VWS V14.01,2013-01-21 09:10:00,
2013-01-21 04:15:00,19.4,9.2,30.00,ENE,68,0.0,0.0,64,0.00,,BKN250,0.00,VWS V14.01,2013-01-21 09:15:00,
2013-01-21 04:20:00,19.4,9.2,30.00,ENE,68,0.0,0.0,64,0.00,,BKN250,0.00,VWS V14.01,2013-01-21 09:20:00,
2013-01-21 04:25:00,19.4,9.6,30.00,ENE,68,0.0,0.0,65,0.00,,BKN250,0.00,VWS V14.01,2013-01-21 09:25:00,
2013-01-21 04:30:00,19.2,9.0,30.00,ENE,68,0.0,0.0,64,0.00,,BKN250,0.00,VWS V14.01,2013-01-21 09:30:00,
2013-01-21 04:35:00,19.1,8.9,30.00,ENE,68,0.0,0.0,64,0.00,,BKN250,0.00,VWS V14.01,2013-01-21 09:35:00,
2013-01-21 04:40:00,19.0,9.2,30.01,ENE,68,0.0,0.0,65,0.00,,BKN250,0.00,VWS V14.01,2013-01-21 09:40:00,
2013-01-21 04:45:00,18.9,9.1,30.01,ENE,68,0.0,0.0,65,0.00,,BKN250,0.00,VWS V14.01,2013-01-21 09:45:00,
2013-01-21 04:50:00,18.8,9.0,30.01,ENE,68,0.0,0.0,65,0.00,,BKN250,0.00,VWS V14.01,2013-01-21 09:50:00,
2013-01-21 04:55:00,18.7,8.9,30.01,ENE,68,0.0,0.0,65,0.00,,BKN250,0.00,VWS V14.01,2013-01-21 09:55:00,
2013-01-21 05:00:00,18.6,8.8,30.01,ENE,68,0.0,0.0,65,0.00,,BKN250,0.00,VWS V14.01,2013-01-21 10:00:00,
2013-01-21 05:05:00,18.4,9.0,30.02,ENE,68,0.0,0.0,66,0.00,,BKN250,0.00,VWS V14.01,2013-01-21 10:05:00,
2013-01-21 05:10:00,18.3,8.9,30.02,ENE,68,0.0,0.0,66,0.00,,BKN250,0.00,VWS V14.01,2013-01-21 10:10:00,
2013-01-21 05:15:00,18.1,9.0,30.02,ENE,68,0.0,0.0,67,0.00,,BKN250,0.00,VWS V14.01,2013-01-21 10:15:00,
2013-01-21 05:20:00,18.0,8.9,30.02,ENE,68,0.0,0.0,67,0.00,,BKN250,0.00,VWS V14.01,2013-01-21 10:20:00,
2013-01-21 05:25:00,18.0,9.2,30.02,ENE,68,0.0,0.0,68,0.00,,BKN250,0.00,VWS V14.01,2013-01-21 10:25:00,
2013-01-21 05:30:00,18.0,9.2,30.02,ENE,68,0.0,0.0,68,0.00,,BKN250,0.00,VWS V14.01,2013-01-21 10:30:00,
2013-01-21 05:35:00,17.8,9.0,30.02,ENE,68,0.0,0.0,68,0.00,,BKN250,0.00,VWS V14.01,2013-01-21 10:35:00,
2013-01-21 05:40:00,17.8,9.0,30.01,ENE,68,0.0,0.0,68,0.00,,BKN250,0.00,VWS V14.01,2013-01-21 10:40:00,
2013-01-21 05:45:00,17.7,8.9,30.01,ENE,68,0.0,0.0,68,0.00,,BKN250,0.00,VWS V14.01,2013-01-21 10:45:00,
2013-01-21 05:50:00,17.7,8.9,30.01,ENE,68,0.0,0.0,68,0.00,,BKN250,0.00,VWS V14.01,2013-01-21 10:50:00,
2013-01-21 05:55:00,17.5,8.8,30.01,ENE,68,0.0,0.0,68,0.00,,BKN250,0.00,VWS V14.01,2013-01-21 10:55:00,
2013-01-21 06:00:00,17.5,8.4,30.01,ENE,68,0.0,0.0,67,0.00,,BKN250,0.00,VWS V14.01,2013-01-21 11:00:00,
2013-01-21 06:05:00,17.3,7.9,30.01,ENE,68,0.0,0.0,66,0.00,,BKN250,0.00,VWS V14.01,2013-01-21 11:05:00,
2013-01-21 06:10:00,17.3,7.9,30.01,ENE,68,0.0,0.0,66,0.00,,BKN250,0.00,VWS V14.01,2013-01-21 11:10:00,
2013-01-21 06:15:00,17.2,7.8,30.02,ENE,68,0.0,0.0,66,0.00,,BKN250,0.00,VWS V14.01,2013-01-21 11:15:00,
2013-01-21 06:20:00,17.1,7.4,30.02,ENE,68,0.0,0.0,65,0.00,,BKN250,0.00,VWS V14.01,2013-01-21 11:20:00,
2013-01-21 06:25:00,17.0,7.6,30.02,ENE,68,0.0,0.0,66,0.00,,BKN250,0.00,VWS V14.01,2013-01-21 11:25:00,
2013-01-21 06:30:00,16.8,7.1,30.02,ENE,68,0.0,0.0,65,0.00,,BKN250,0.00,VWS V14.01,2013-01-21 11:30:00,
2013-01-21 06:35:00,16.6,6.9,30.02,ENE,68,0.0,0.0,65,0.00,,BKN250,0.00,VWS V14.01,2013-01-21 11:35:00,
2013-01-21 06:40:00,16.5,6.8,30.02,ENE,68,0.0,0.0,65,0.00,,BKN250,0.00,VWS V14.01,2013-01-21 11:40:00,
2013-01-21 06:45:00,16.4,7.0,30.03,ENE,68,0.0,0.0,66,0.00,,BKN250,0.00,VWS V14.01,2013-01-21 11:45:00,
2013-01-21 06:50:00,16.4,7.0,30.03,ENE,68,0.0,0.0,66,0.00,,BKN250,0.00,VWS V14.01,2013-01-21 11:50:00,
2013-01-21 06:55:00,16.4,7.4,30.03,ENE,68,0.0,0.0,67,0.00,,BKN250,0.00,VWS V14.01,2013-01-21 11:55:00,
2013-01-21 07:00:00,16.5,7.5,30.03,ENE,68,0.0,0.0,67,0.00,,BKN250,0.00,VWS V14.01,2013-01-21 12:00:00,
2013-01-21 07:05:00,16.5,7.5,30.03,ENE,68,0.0,0.0,67,0.00,,BKN250,0.00,VWS V14.01,2013-01-21 12:05:00,
2013-01-21 07:10:00,16.8,8.1,30.03,ENE,68,0.0,0.0,68,0.00,,BKN250,0.00,VWS V14.01,2013-01-21 12:10:00,
2013-01-21 07:15:00,17.2,8.8,30.03,ENE,68,0.0,0.0,69,0.00,,BKN250,0.00,VWS V14.01,2013-01-21 12:15:00,
2013-01-21 07:20:00,17.5,8.8,30.04,ENE,68,0.0,0.0,68,0.00,,BKN250,0.00,VWS V14.01,2013-01-21 12:20:00,
2013-01-21 07:25:00,17.7,8.9,30.04,ENE,68,0.0,0.0,68,0.00,,BKN250,0.00,VWS V14.01,2013-01-21 12:25:00,
2013-01-21 07:30:00,17.7,8.9,30.04,ENE,68,0.0,0.0,68,0.00,,BKN250,0.00,VWS V14.01,2013-01-21 12:30:00,
2013-01-21 07:35:00,17.7,9.3,30.04,ENE,68,0.0,0.0,69,0.00,,BKN250,0.00,VWS V14.01,2013-01-21 12:35:00,
2013-01-21 07:40:00,17.8,9.4,30.03,ENE,68,0.0,0.0,69,0.00,,BKN250,0.00,VWS V14.01,2013-01-21 12:40:00,
2013-01-21 07:45:00,17.9,9.1,30.03,ENE,68,0.0,0.0,68,0.00,,BKN250,0.00,VWS V14.01,2013-01-21 12:45:00,
2013-01-21 07:50:00,18.0,9.2,30.03,ENE,68,0.0,0.0,68,0.00,,BKN250,0.00,VWS V14.01,2013-01-21 12:50:00,
2013-01-21 07:55:00,18.0,9.2,30.03,ENE,68,0.0,0.0,68,0.00,,BKN250,0.00,VWS V14.01,2013-01-21 12:55:00,
2013-01-21 08:00:00,18.0,9.2,30.03,ENE,68,0.0,0.0,68,0.00,,BKN250,0.00,VWS V14.01,2013-01-21 13:00:00,
2013-01-21 08:05:00,18.1,9.3,30.03,ENE,68,0.0,0.0,68,0.00,,BKN250,0.00,VWS V14.01,2013-01-21 13:05:00,
2013-01-21 08:10:00,18.2,9.4,30.03,ENE,68,0.0,0.0,68,0.00,,BKN250,0.00,VWS V14.01,2013-01-21 13:10:00,
2013-01-21 08:15:00,18.4,9.6,30.04,ENE,68,0.0,0.0,68,0.00,,BKN250,0.00,VWS V14.01,2013-01-21 13:15:00,
2013-01-21 08:20:00,18.6,9.8,30.04,ENE,68,0.0,0.0,68,0.00,,BKN250,0.00,VWS V14.01,2013-01-21 13:20:00,
2013-01-21 08:25:00,18.7,9.6,30.04,ENE,68,0.0,0.0,67,0.00,,BKN250,0.00,VWS V14.01,2013-01-21 13:25:00,
2013-01-21 08:30:00,18.8,9.7,30.04,ENE,68,0.0,0.0,67,0.00,,BKN250,0.00,VWS V14.01,2013-01-21 13:30:00,
2013-01-21 08:35:00,18.9,9.8,30.05,ENE,68,0.0,0.0,67,0.00,,BKN250,0.00,VWS V14.01,2013-01-21 13:35:00,
2013-01-21 08:40:00,18.9,9.4,30.05,ENE,68,0.0,0.0,66,0.00,,BKN250,0.00,VWS V14.01,2013-01-21 13:40:00,
2013-01-21 08:45:00,19.1,9.3,30.06,ENE,68,0.0,0.0,65,0.00,,BKN250,0.00,VWS V14.01,2013-01-21 13:45:00,
2013-01-21 08:50:00,19.3,9.5,30.05,ENE,68,0.0,0.0,65,0.00,,BKN250,0.00,VWS V14.01,2013-01-21 13:50:00,
2013-01-21 08:55:00,19.6,9.8,30.05,ENE,68,0.0,0.0,65,0.00,,BKN250,0.00,VWS V14.01,2013-01-21 13:55:00,
2013-01-21 09:00:00,19.9,9.4,30.06,ENE,68,0.0,0.0,63,0.00,,BKN250,0.00,VWS V14.01,2013-01-21 14:00:00,
2013-01-21 09:05:00,20.1,9.5,30.06,ENE,68,0.0,0.0,63,0.00,,BKN250,0.00,VWS V14.01,2013-01-21 14:05:00,
2013-01-21 09:10:00,20.3,9.4,30.05,ENE,68,0.0,0.0,62,0.00,,BKN250,0.00,VWS V14.01,2013-01-21 14:10:00,
2013-01-21 09:15:00,20.4,9.1,30.05,ENE,68,0.0,0.0,61,0.00,,BKN250,0.00,VWS V14.01,2013-01-21 14:15:00,
2013-01-21 09:20:00,20.5,8.8,30.06,ENE,68,0.0,0.0,60,0.00,,BKN250,0.00,VWS V14.01,2013-01-21 14:20:00,
2013-01-21 09:25:00,20.6,9.7,30.06,ENE,68,0.0,0.0,62,0.00,,BKN250,0.00,VWS V14.01,2013-01-21 14:25:00,
2013-01-21 09:30:00,20.9,9.6,30.05,ENE,68,0.0,0.0,61,0.00,,BKN250,0.00,VWS V14.01,2013-01-21 14:30:00,
2013-01-21 09:35:00,21.1,9.4,30.05,ENE,68,0.0,0.0,60,0.00,,BKN250,0.00,VWS V14.01,2013-01-21 14:35:00,
2013-01-21 09:40:00,21.3,9.2,30.05,ENE,68,0.0,0.0,59,0.00,,BKN250,0.00,VWS V14.01,2013-01-21 14:40:00,
2013-01-21 09:45:00,21.4,8.6,30.05,ENE,68,0.0,0.0,57,0.00,,BKN250,0.00,VWS V14.01,2013-01-21 14:45:00,
2013-01-21 09:50:00,21.7,8.4,30.05,ENE,68,0.0,0.0,56,0.00,,BKN250,0.00,VWS V14.01,2013-01-21 14:50:00,
2013-01-21 09:55:00,22.0,8.7,30.06,ENE,68,0.0,0.0,56,0.00,,BKN250,0.00,VWS V14.01,2013-01-21 14:55:00,
2013-01-21 10:00:00,22.7,9.0,30.06,ENE,68,0.0,0.0,55,0.00,,BKN250,0.00,VWS V14.01,2013-01-21 15:00:00,
2013-01-21 10:05:00,23.3,9.1,30.05,ENE,68,0.0,2.0,54,0.00,,BKN250,0.00,VWS V14.01,2013-01-21 15:05:00,
2013-01-21 10:10:00,23.9,8.4,30.06,ENE,68,0.0,2.0,51,0.00,,BKN250,0.00,VWS V14.01,2013-01-21 15:10:00,
2013-01-21 10:15:00,24.3,7.9,30.05,ENE,68,0.0,2.0,49,0.00,,BKN250,0.00,VWS V14.01,2013-01-21 15:15:00,
2013-01-21 10:20:00,24.6,8.2,30.05,ENE,68,0.0,1.0,49,0.00,,BKN250,0.00,VWS V14.01,2013-01-21 15:20:00,
2013-01-21 10:25:00,25.0,7.6,30.05,SE,135,0.0,3.0,47,0.00,,BKN250,0.00,VWS V14.01,2013-01-21 15:25:00,
2013-01-21 10:30:00,25.0,6.2,30.05,SE,135,0.0,2.0,44,0.00,,BKN250,0.00,VWS V14.01,2013-01-21 15:30:00,
2013-01-21 10:35:00,25.0,6.2,30.04,South,180,0.0,2.0,44,0.00,,BKN250,0.00,VWS V14.01,2013-01-21 15:35:00,
2013-01-21 10:40:00,25.2,6.4,30.04,South,180,0.0,3.0,44,0.00,,BKN250,0.00,VWS V14.01,2013-01-21 15:40:00,
2013-01-21 10:45:00,25.2,6.4,30.04,South,180,0.0,2.0,44,0.00,,BKN250,0.00,VWS V14.01,2013-01-21 15:45:00,
2013-01-21 10:50:00,25.1,5.8,30.03,South,180,0.0,3.0,43,0.00,,BKN250,0.00,VWS V14.01,2013-01-21 15:50:00,
2013-01-21 10:55:00,24.8,6.0,30.03,SSW,202,1.0,4.0,44,0.00,,BKN250,0.00,VWS V14.01,2013-01-21 15:55:00,
2013-01-21 11:00:00,24.8,6.5,30.02,SSW,202,0.0,3.0,45,0.00,,BKN250,0.00,VWS V14.01,2013-01-21 16:00:00,
2013-01-21 11:05:00,25.0,5.7,30.02,SSW,202,1.0,6.0,43,0.00,,BKN250,0.00,VWS V14.01,2013-01-21 16:05:00,
2013-01-21 11:10:00,25.0,7.2,30.02,South,180,0.0,1.0,46,0.00,,BKN250,0.00,VWS V14.01,2013-01-21 16:10:00,
2013-01-21 11:15:00,25.1,6.3,30.02,South,180,0.0,4.0,44,0.00,,BKN250,0.00,VWS V14.01,2013-01-21 16:15:00,
2013-01-21 11:20:00,25.2,5.9,30.01,South,180,0.0,3.0,43,0.00,,BKN250,0.00,VWS V14.01,2013-01-21 16:20:00,
2013-01-21 11:25:00,25.4,6.0,30.01,South,180,0.0,1.0,43,0.00,,BKN250,0.00,VWS V14.01,2013-01-21 16:25:00,
2013-01-21 11:30:00,25.5,6.6,30.00,South,180,0.0,1.0,44,0.00,,BKN250,0.00,VWS V14.01,2013-01-21 16:30:00,
2013-01-21 11:35:00,25.7,6.3,30.00,South,180,0.0,6.0,43,0.00,,BKN250,0.00,VWS V14.01,2013-01-21 16:35:00,
2013-01-21 11:40:00,25.7,6.3,29.99,SSW,202,0.0,4.0,43,0.00,,BKN250,0.00,VWS V14.01,2013-01-21 16:40:00,
2013-01-21 11:45:00,25.9,7.5,29.98,SSW,202,0.0,0.0,45,0.00,,BKN250,0.00,VWS V14.01,2013-01-21 16:45:00,
2013-01-21 11:50:00,26.1,6.2,29.98,South,180,0.0,1.0,42,0.00,,BKN250,0.00,VWS V14.01,2013-01-21 16:50:00,
2013-01-21 11:55:00,26.1,4.0,29.98,South,180,0.0,3.0,38,0.00,,BKN250,0.00,VWS V14.01,2013-01-21 16:55:00,
2013-01-21 12:00:00,25.8,4.8,29.98,South,180,0.0,1.0,40,0.00,,BKN250,0.00,VWS V14.01,2013-01-21 17:00:00,
2013-01-21 12:05:00,25.8,4.8,29.98,South,180,1.0,4.0,40,0.00,,BKN250,0.00,VWS V14.01,2013-01-21 17:05:00,
2013-01-21 12:10:00,25.7,4.7,29.97,SSW,202,0.0,3.0,40,0.00,,BKN250,0.00,VWS V14.01,2013-01-21 17:10:00,
2013-01-21 12:15:00,26.3,5.8,29.94,SSW,213,0.0,0.0,41,0.00,,BKN200,0.00,VWS V14.01,2013-01-21 17:15:00,
2013-01-21 12:19:00,25.7,4.7,29.97,SSW,202,0.0,3.0,40,0.00,,BKN250,0.00,VWS V14.01,2013-01-21 17:19:00,
2013-01-21 12:20:00,25.7,4.7,29.97,North,0,0.0,0.0,40,0.00,,BKN250,0.00,VWS V14.01,2013-01-21 17:20:00,
2013-01-21 12:25:00,26.3,5.8,29.94,SSW,212,1.0,15.0,41,0.00,,BKN200,0.00,VWS V14.01,2013-01-21 17:25:00,
2013-01-21 12:28:00,26.1,5.1,29.96,SSW,196,0.0,0.0,40,0.00,,BKN250,0.00,VWS V14.01,2013-01-21 17:28:00,
2013-01-21 12:30:00,26.1,7.2,29.93,SSW,210,0.0,3.0,44,0.00,,BKN200,0.00,VWS V14.01,2013-01-21 17:30:00,
2013-01-21 12:33:00,26.3,4.7,29.96,SSW,196,0.0,0.0,39,0.00,,OVC250,0.00,VWS V14.01,2013-01-21 17:33:00,
2013-01-21 12:35:00,26.1,6.7,29.93,SSW,211,3.0,3.0,43,0.00,,BKN200,0.00,VWS V14.01,2013-01-21 17:35:00,
2013-01-21 12:38:00,26.3,5.8,29.96,SSW,196,0.0,0.0,41,0.00,,OVC250,0.00,VWS V14.01,2013-01-21 17:38:00,
2013-01-21 12:40:00,26.1,6.2,29.93,SSW,211,0.0,3.0,42,0.00,,BKN200,0.00,VWS V14.01,2013-01-21 17:40:00,
2013-01-21 12:43:00,26.4,6.4,29.96,SSW,196,0.0,0.0,42,0.00,,OVC250,0.00,VWS V14.01,2013-01-21 17:43:00,
2013-01-21 12:45:00,26.1,6.2,29.92,SSW,211,0.0,2.0,42,0.00,,BKN200,0.00,VWS V14.01,2013-01-21 17:45:00,
2013-01-21 12:48:00,26.4,4.8,29.95,SSW,197,0.0,3.0,39,0.00,,OVC250,0.00,VWS V14.01,2013-01-21 17:48:00,
2013-01-21 12:50:00,26.1,7.2,29.92,SSW,211,0.0,1.0,44,0.00,,BKN200,0.00,VWS V14.01,2013-01-21 17:50:00,
2013-01-21 12:53:00,26.3,5.8,29.95,SSW,198,0.0,1.0,41,0.00,,OVC250,0.00,VWS V14.01,2013-01-21 17:53:00,
2013-01-21 12:55:00,26.1,7.2,29.92,WSW,246,0.0,3.0,44,0.00,,BKN200,0.00,VWS V14.01,2013-01-21 17:55:00,
2013-01-21 12:58:00,26.0,5.0,29.95,SSW,212,0.0,5.0,40,0.00,,OVC250,0.00,VWS V14.01,2013-01-21 17:58:00,
2013-01-21 13:00:00,26.1,7.2,29.92,WSW,238,0.0,2.0,44,0.00,,BKN200,0.00,VWS V14.01,2013-01-21 18:00:00,
2013-01-21 13:03:00,26.0,5.5,29.94,SSW,212,0.0,1.0,41,0.00,,OVC200,0.00,VWS V14.01,2013-01-21 18:03:00,
2013-01-21 13:05:00,26.0,6.6,29.92,WSW,237,0.0,3.0,43,0.00,,BKN200,0.00,VWS V14.01,2013-01-21 18:05:00,
2013-01-21 13:08:00,26.1,6.2,29.94,SSW,212,0.0,0.0,42,0.00,,OVC200,0.00,VWS V14.01,2013-01-21 18:08:00,
2013-01-21 13:10:00,26.0,7.6,29.92,SW,234,0.0,2.0,45,0.00,,BKN200,0.00,VWS V14.01,2013-01-21 18:10:00,
2013-01-21 13:13:00,26.3,5.8,29.94,SSW,213,0.0,0.0,41,0.00,,OVC200,0.00,VWS V14.01,2013-01-21 18:13:00,
2013-01-21 13:15:00,26.0,7.1,29.92,SW,225,0.0,3.0,44,0.00,,BKN200,0.00,VWS V14.01,2013-01-21 18:15:00,
2013-01-21 13:18:00,26.4,6.9,29.93,SSW,213,0.0,0.0,43,0.00,,OVC200,0.00,VWS V14.01,2013-01-21 18:18:00,
2013-01-21 13:20:00,26.0,7.6,29.92,SW,225,0.0,0.0,45,0.00,,BKN200,0.00,VWS V14.01,2013-01-21 18:20:00,
2013-01-21 13:23:00,26.4,6.4,29.94,SSW,212,0.0,2.0,42,0.00,,OVC200,0.00,VWS V14.01,2013-01-21 18:23:00,
2013-01-21 13:25:00,26.0,7.6,29.92,SW,225,0.0,6.0,45,0.00,,BKN200,0.00,VWS V14.01,2013-01-21 18:25:00,
2013-01-21 13:28:00,26.1,6.7,29.93,SSW,210,1.0,3.0,43,0.00,,OVC200,0.00,VWS V14.01,2013-01-21 18:28:00,
2013-01-21 13:30:00,26.0,8.1,29.92,SW,236,0.0,2.0,46,0.00,,BKN200,0.00,VWS V14.01,2013-01-21 18:30:00,
2013-01-21 13:33:00,26.1,6.7,29.93,SSW,210,0.0,1.0,43,0.00,,OVC200,0.00,VWS V14.01,2013-01-21 18:33:00,
2013-01-21 13:35:00,26.0,8.6,29.92,SW,236,0.0,1.0,47,0.00,,BKN200,0.00,VWS V14.01,2013-01-21 18:35:00,
2013-01-21 13:38:00,26.1,6.7,29.93,SSW,211,0.0,3.0,43,0.00,,OVC200,0.00,VWS V14.01,2013-01-21 18:38:00,
2013-01-21 13:40:00,25.8,8.4,29.92,SW,231,0.0,4.0,47,0.00,,BKN200,0.00,VWS V14.01,2013-01-21 18:40:00,
2013-01-21 13:43:00,26.1,6.7,29.92,SSW,211,1.0,1.0,43,0.00,,OVC200,0.00,VWS V14.01,2013-01-21 18:43:00,
2013-01-21 13:45:00,25.8,8.4,29.92,SW,225,0.0,2.0,47,0.00,,BKN200,0.00,VWS V14.01,2013-01-21 18:45:00,
2013-01-21 13:48:00,26.1,7.2,29.92,SSW,211,0.0,0.0,44,0.00,,OVC200,0.00,VWS V14.01,2013-01-21 18:48:00,
2013-01-21 13:50:00,25.7,9.2,29.92,SW,225,0.0,2.0,49,0.00,,BKN200,0.00,VWS V14.01,2013-01-21 18:50:00,
2013-01-21 13:53:00,26.1,7.2,29.92,WSW,252,1.0,3.0,44,0.00,,OVC200,0.00,VWS V14.01,2013-01-21 18:53:00,
2013-01-21 13:55:00,25.6,10.9,29.92,SSW,201,0.0,20.0,53,0.00,,BKN200,0.00,VWS V14.01,2013-01-21 18:55:00,
2013-01-21 13:58:00,26.1,7.7,29.92,WSW,239,1.0,2.0,45,0.00,,OVC200,0.00,VWS V14.01,2013-01-21 18:58:00,
2013-01-21 14:00:00,25.0,11.9,29.92,SW,219,0.0,17.0,57,0.00,,BKN200,0.00,VWS V14.01,2013-01-21 19:00:00,
2013-01-21 14:03:00,26.0,6.6,29.92,WSW,238,1.0,3.0,43,0.00,,OVC095,0.00,VWS V14.01,2013-01-21 19:03:00,
2013-01-21 14:05:00,24.5,12.6,29.91,SSW,209,0.0,2.0,60,0.00,,BKN200,0.00,VWS V14.01,2013-01-21 19:05:00,
2013-01-21 14:08:00,26.0,7.1,29.92,SW,234,0.0,2.0,44,0.00,,OVC095,0.00,VWS V14.01,2013-01-21 19:08:00,
2013-01-21 14:10:00,24.4,12.9,29.92,SW,223,0.0,3.0,61,0.00,,BKN200,0.00,VWS V14.01,2013-01-21 19:10:00,
2013-01-21 14:13:00,26.0,7.1,29.92,SW,227,1.0,3.0,44,0.00,,OVC095,0.00,VWS V14.01,2013-01-21 19:13:00,
2013-01-21 14:15:00,24.4,13.6,29.91,SW,223,0.0,1.0,63,0.00,,BKN200,0.00,VWS V14.01,2013-01-21 19:15:00,
2013-01-21 14:18:00,26.0,7.6,29.92,SW,225,0.0,0.0,45,0.00,,OVC095,0.00,VWS V14.01,2013-01-21 19:18:00,
2013-01-21 14:20:00,24.2,13.8,29.91,SW,223,0.0,1.0,64,0.00,,BKN200,0.00,VWS V14.01,2013-01-21 19:20:00,
2013-01-21 14:23:00,26.0,7.1,29.92,SW,225,0.0,6.0,44,0.00,,OVC095,0.00,VWS V14.01,2013-01-21 19:23:00,
2013-01-21 14:25:00,24.1,14.7,29.91,SW,221,0.0,3.0,67,0.00,,BKN200,0.00,VWS V14.01,2013-01-21 19:25:00,
2013-01-21 14:28:00,26.0,7.6,29.92,SW,225,0.0,2.0,45,0.00,,OVC095,0.00,VWS V14.01,2013-01-21 19:28:00,
2013-01-21 14:30:00,23.9,14.9,29.91,SW,217,0.0,2.0,68,0.00,,BKN200,0.00,VWS V14.01,2013-01-21 19:30:00,
2013-01-21 14:33:00,25.8,7.9,29.92,SW,236,0.0,1.0,46,0.00,,OVC095,0.00,VWS V14.01,2013-01-21 19:33:00,
2013-01-21 14:35:00,23.6,15.3,29.90,SW,218,0.0,1.0,70,0.00,,BKN200,0.00,VWS V14.01,2013-01-21 19:35:00,
2013-01-21 14:38:00,26.0,8.6,29.92,SW,232,0.0,4.0,47,0.00,,OVC095,0.00,VWS V14.01,2013-01-21 19:38:00,
2013-01-21 14:40:00,23.5,15.5,29.90,SW,217,0.0,2.0,71,0.00,,BKN200,0.00,VWS V14.01,2013-01-21 19:40:00,
2013-01-21 14:43:00,25.8,8.8,29.92,SW,231,0.0,1.0,48,0.00,,OVC095,0.00,VWS V14.01,2013-01-21 19:43:00,
2013-01-21 14:45:00,23.3,15.6,29.90,SW,217,0.0,1.0,72,0.00,,BKN200,0.00,VWS V14.01,2013-01-21 19:45:00,
2013-01-21 14:48:00,25.7,8.7,29.92,SW,225,1.0,2.0,48,0.00,,OVC095,0.00,VWS V14.01,2013-01-21 19:48:00,
2013-01-21 14:50:00,23.2,15.8,29.90,SW,217,0.0,0.0,73,0.00,,BKN200,0.00,VWS V14.01,2013-01-21 19:50:00,
2013-01-21 14:53:00,25.7,9.6,29.92,SSW,207,1.0,10.0,50,0.00,,OVC095,0.00,VWS V14.01,2013-01-21 19:53:00,
2013-01-21 14:55:00,23.0,16.3,29.90,SW,217,0.0,0.0,75,0.00,,BKN200,0.00,VWS V14.01,2013-01-21 19:55:00,
2013-01-21 14:58:00,25.3,11.4,29.92,South,190,0.0,17.0,55,0.00,,OVC095,0.00,VWS V14.01,2013-01-21 19:58:00,
2013-01-21 15:00:00,23.0,16.6,29.89,SW,217,0.0,0.0,76,0.00,,BKN200,0.00,VWS V14.01,2013-01-21 20:00:00,
2013-01-21 15:03:00,24.7,12.4,29.92,SSW,211,0.0,2.0,59,0.00,,OVC070,0.00,VWS V14.01,2013-01-21 20:03:00,
2013-01-21 15:05:00,22.9,16.5,29.89,SW,217,0.0,0.0,76,0.00,,BKN200,0.00,VWS V14.01,2013-01-21 20:05:00,
2013-01-21 15:08:00,24.5,13.0,29.91,SSW,209,0.0,3.0,61,0.00,,OVC070,0.00,VWS V14.01,2013-01-21 20:08:00,
2013-01-21 15:10:00,22.7,16.6,29.89,SW,217,0.0,0.0,77,0.00,,BKN200,0.00,VWS V14.01,2013-01-21 20:10:00,
2013-01-21 15:13:00,24.4,13.6,29.91,SW,223,0.0,1.0,63,0.00,,OVC070,0.00,VWS V14.01,2013-01-21 20:13:00,
2013-01-21 15:15:00,22.5,16.7,29.88,SW,217,0.0,0.0,78,0.00,,BKN200,0.00,VWS V14.01,2013-01-21 20:15:00,
2013-01-21 15:18:00,24.2,13.8,29.91,SW,223,0.0,0.0,64,0.00,,OVC070,0.00,VWS V14.01,2013-01-21 20:18:00,
2013-01-21 15:20:00,22.5,16.7,29.88,SW,217,0.0,0.0,78,0.00,,BKN200,0.00,VWS V14.01,2013-01-21 20:20:00,
2013-01-21 15:23:00,24.2,14.5,29.91,SW,222,0.0,3.0,66,0.00,,OVC070,0.00,VWS V14.01,2013-01-21 20:23:00,
2013-01-21 15:25:00,22.5,17.0,29.88,SW,217,0.0,0.0,79,0.00,,BKN200,0.00,VWS V14.01,2013-01-21 20:25:00,
2013-01-21 15:28:00,24.1,15.1,29.90,SW,221,0.0,0.0,68,0.00,,OVC070,0.00,VWS V14.01,2013-01-21 20:28:00,
2013-01-21 15:30:00,22.4,16.9,29.88,SW,217,0.0,0.0,79,0.00,,BKN200,0.00,VWS V14.01,2013-01-21 20:30:00,
2013-01-21 15:33:00,23.8,15.1,29.90,SW,218,0.0,1.0,69,0.00,,OVC070,0.00,VWS V14.01,2013-01-21 20:33:00,
2013-01-21 15:35:00,22.4,17.2,29.88,SW,217,0.0,0.0,80,0.00,,BKN200,0.00,VWS V14.01,2013-01-21 20:35:00,
2013-01-21 15:38:00,23.6,15.3,29.90,SW,218,0.0,1.0,70,0.00,,OVC070,0.00,VWS V14.01,2013-01-21 20:38:00,
2013-01-21 15:40:00,22.4,17.2,29.89,SW,217,0.0,0.0,80,0.00,,BKN200,0.00,VWS V14.01,2013-01-21 20:40:00,
2013-01-21 15:43:00,23.3,15.6,29.90,SW,217,0.0,1.0,72,0.00,,OVC070,0.00,VWS V14.01,2013-01-21 20:43:00,
2013-01-21 15:45:00,22.4,17.2,29.88,SW,217,0.0,0.0,80,0.00,,BKN200,0.00,VWS V14.01,2013-01-21 20:45:00,
2013-01-21 15:48:00,23.2,15.8,29.90,SW,217,0.0,0.0,73,0.00,,OVC070,0.00,VWS V14.01,2013-01-21 20:48:00,
2013-01-21 15:50:00,22.2,17.0,29.88,SW,217,0.0,0.0,80,0.00,,BKN200,0.00,VWS V14.01,2013-01-21 20:50:00,
2013-01-21 15:53:00,23.2,16.2,29.90,SW,217,0.0,0.0,74,0.00,,OVC070,0.00,VWS V14.01,2013-01-21 20:53:00,
2013-01-21 15:55:00,22.2,17.0,29.88,SW,217,0.0,0.0,80,0.00,,BKN200,0.00,VWS V14.01,2013-01-21 20:55:00,
2013-01-21 15:58:00,23.0,16.3,29.89,SW,217,0.0,0.0,75,0.00,,OVC070,0.00,VWS V14.01,2013-01-21 20:58:00,
2013-01-21 16:00:00,22.2,17.3,29.88,SW,217,0.0,0.0,81,0.00,,BKN200,0.00,VWS V14.01,2013-01-21 21:00:00,
2013-01-21 16:03:00,22.9,16.5,29.89,SW,217,0.0,0.0,76,0.00,,OVC050,0.00,VWS V14.01,2013-01-21 21:03:00,
2013-01-21 16:05:00,22.1,17.2,29.88,SW,217,0.0,0.0,81,0.00,,BKN200,0.00,VWS V14.01,2013-01-21 21:05:00,
2013-01-21 16:08:00,22.9,16.8,29.89,SW,217,0.0,0.0,77,0.00,,OVC050,0.00,VWS V14.01,2013-01-21 21:08:00,
2013-01-21 16:10:00,22.1,17.2,29.88,SW,217,0.0,0.0,81,0.00,,BKN200,0.00,VWS V14.01,2013-01-21 21:10:00,
2013-01-21 16:13:00,22.7,16.6,29.88,SW,217,0.0,0.0,77,0.00,,OVC050,0.00,VWS V14.01,2013-01-21 21:13:00,
2013-01-21 16:15:00,22.1,17.2,29.88,SW,217,0.0,0.0,81,0.00,,BKN200,0.00,VWS V14.01,2013-01-21 21:15:00,
2013-01-21 16:18:00,22.5,16.7,29.88,SW,217,0.0,0.0,78,0.00,,OVC050,0.00,VWS V14.01,2013-01-21 21:18:00,
2013-01-21 16:20:00,22.1,17.2,29.88,SW,217,0.0,0.0,81,0.00,,BKN200,0.00,VWS V14.01,2013-01-21 21:20:00,
2013-01-21 16:23:00,22.5,17.0,29.88,SW,217,0.0,0.0,79,0.00,,OVC050,0.00,VWS V14.01,2013-01-21 21:23:00,
2013-01-21 16:25:00,22.1,17.2,29.88,SW,217,0.0,0.0,81,0.00,,BKN200,0.00,VWS V14.01,2013-01-21 21:25:00,
2013-01-21 16:28:00,22.4,16.9,29.88,SW,217,0.0,0.0,79,0.00,,OVC050,0.00,VWS V14.01,2013-01-21 21:28:00,
2013-01-21 16:30:00,22.1,17.5,29.88,SW,217,0.0,0.0,82,0.00,,BKN200,0.00,VWS V14.01,2013-01-21 21:30:00,
2013-01-21 16:33:00,22.4,17.2,29.88,SW,217,0.0,0.0,80,0.00,,,0.00,VWS V14.01,2013-01-21 21:33:00,
2013-01-21 16:35:00,22.1,17.5,29.88,SW,217,0.0,0.0,82,0.00,,BKN200,0.00,VWS V14.01,2013-01-21 21:35:00,
2013-01-21 16:38:00,22.4,17.2,29.89,SW,217,0.0,0.0,80,0.00,,,0.00,VWS V14.01,2013-01-21 21:38:00,
2013-01-21 16:40:00,22.1,17.5,29.88,SW,217,0.0,0.0,82,0.00,,BKN200,0.00,VWS V14.01,2013-01-21 21:40:00,
2013-01-21 16:43:00,22.4,17.2,29.88,SW,217,0.0,0.0,80,0.00,,,0.00,VWS V14.01,2013-01-21 21:43:00,
2013-01-21 16:45:00,22.1,17.5,29.88,SW,217,0.0,0.0,82,0.00,,BKN200,0.00,VWS V14.01,2013-01-21 21:45:00,
2013-01-21 16:48:00,22.4,17.2,29.88,SW,217,0.0,0.0,80,0.00,,,0.00,VWS V14.01,2013-01-21 21:48:00,
2013-01-21 16:50:00,22.1,17.5,29.88,SW,217,0.0,0.0,82,0.00,,BKN200,0.00,VWS V14.01,2013-01-21 21:50:00,
2013-01-21 16:53:00,22.2,17.0,29.88,SW,217,0.0,0.0,80,0.00,,,0.00,VWS V14.01,2013-01-21 21:53:00,
2013-01-21 16:55:00,22.1,17.5,29.88,SW,217,0.0,0.0,82,0.00,,BKN200,0.00,VWS V14.01,2013-01-21 21:55:00,
2013-01-21 16:58:00,22.2,17.0,29.88,SW,217,0.0,0.0,80,0.00,,,0.00,VWS V14.01,2013-01-21 21:58:00,
2013-01-21 17:00:00,22.1,17.7,29.87,SW,217,0.0,0.0,83,0.00,,BKN200,0.00,VWS V14.01,2013-01-21 22:00:00,
2013-01-21 17:03:00,22.1,17.2,29.88,SW,217,0.0,0.0,81,0.00,,,0.00,VWS V14.01,2013-01-21 22:03:00,
2013-01-21 17:05:00,21.9,17.5,29.87,SW,217,0.0,0.0,83,0.00,,BKN200,0.00,VWS V14.01,2013-01-21 22:05:00,
2013-01-21 17:08:00,22.1,17.2,29.88,SW,217,0.0,0.0,81,0.00,,,0.00,VWS V14.01,2013-01-21 22:08:00,
2013-01-21 17:10:00,21.9,17.5,29.87,SW,217,0.0,0.0,83,0.00,,BKN200,0.00,VWS V14.01,2013-01-21 22:10:00,
2013-01-21 17:13:00,22.1,17.2,29.88,SW,217,0.0,0.0,81,0.00,,,0.00,VWS V14.01,2013-01-21 22:13:00,
2013-01-21 17:15:00,21.9,17.5,29.88,SW,217,0.0,0.0,83,0.00,,BKN200,0.00,VWS V14.01,2013-01-21 22:15:00,
2013-01-21 17:18:00,22.1,17.2,29.88,SW,217,0.0,0.0,81,0.00,,,0.00,VWS V14.01,2013-01-21 22:18:00,
2013-01-21 17:20:00,21.9,17.5,29.87,SW,217,0.0,0.0,83,0.00,,BKN200,0.00,VWS V14.01,2013-01-21 22:20:00,
2013-01-21 17:23:00,22.1,17.2,29.88,SW,217,0.0,0.0,81,0.00,,,0.00,VWS V14.01,2013-01-21 22:23:00,
2013-01-21 17:25:00,21.9,17.5,29.87,SW,217,0.0,0.0,83,0.00,,BKN200,0.00,VWS V14.01,2013-01-21 22:25:00,
2013-01-21 17:28:00,22.1,17.5,29.88,SW,217,0.0,0.0,82,0.00,,,0.00,VWS V14.01,2013-01-21 22:28:00,
2013-01-21 17:30:00,21.9,17.5,29.87,SW,217,0.0,0.0,83,0.00,,BKN200,0.00,VWS V14.01,2013-01-21 22:30:00,
2013-01-21 17:33:00,22.1,17.5,29.88,SW,217,0.0,0.0,82,0.00,,,0.00,VWS V14.01,2013-01-21 22:33:00,
2013-01-21 17:35:00,21.9,17.5,29.87,SW,217,0.0,0.0,83,0.00,,BKN200,0.00,VWS V14.01,2013-01-21 22:35:00,
2013-01-21 17:38:00,22.1,17.5,29.88,SW,217,0.0,0.0,82,0.00,,,0.00,VWS V14.01,2013-01-21 22:38:00,
2013-01-21 17:40:00,21.9,17.5,29.86,SW,217,0.0,0.0,83,0.00,,BKN200,0.00,VWS V14.01,2013-01-21 22:40:00,
2013-01-21 17:43:00,22.1,17.5,29.88,SW,217,0.0,0.0,82,0.00,,,0.00,VWS V14.01,2013-01-21 22:43:00,
2013-01-21 17:45:00,21.9,17.5,29.86,SW,217,0.0,0.0,83,0.00,,BKN200,0.00,VWS V14.01,2013-01-21 22:45:00,
2013-01-21 17:48:00,22.1,17.5,29.88,SW,217,0.0,0.0,82,0.00,,,0.00,VWS V14.01,2013-01-21 22:48:00,
2013-01-21 17:50:00,21.9,17.5,29.86,SW,217,0.0,0.0,83,0.00,,BKN200,0.00,VWS V14.01,2013-01-21 22:50:00,
2013-01-21 17:53:00,22.1,17.7,29.88,SW,217,0.0,0.0,83,0.00,,,0.00,VWS V14.01,2013-01-21 22:53:00,
2013-01-21 17:55:00,21.9,17.5,29.86,SW,217,0.0,0.0,83,0.00,,BKN200,0.00,VWS V14.01,2013-01-21 22:55:00,
2013-01-21 17:58:00,22.1,17.7,29.88,SW,217,0.0,0.0,83,0.00,,,0.00,VWS V14.01,2013-01-21 22:58:00,
2013-01-21 18:00:00,21.9,17.5,29.87,SW,217,0.0,0.0,83,0.00,,BKN200,0.00,VWS V14.01,2013-01-21 23:00:00,
2013-01-21 18:03:00,22.1,17.7,29.87,SW,217,0.0,0.0,83,0.00,,,0.00,VWS V14.01,2013-01-21 23:03:00,
2013-01-21 18:05:00,21.8,17.4,29.87,SW,217,0.0,0.0,83,0.00,,BKN200,0.00,VWS V14.01,2013-01-21 23:05:00,
2013-01-21 18:08:00,21.9,17.5,29.87,SW,217,0.0,0.0,83,0.00,,,0.00,VWS V14.01,2013-01-21 23:08:00,
2013-01-21 18:10:00,21.8,17.4,29.87,SW,217,0.0,0.0,83,0.00,,BKN200,0.00,VWS V14.01,2013-01-21 23:10:00,
2013-01-21 18:13:00,21.9,17.5,29.88,SW,217,0.0,0.0,83,0.00,,,0.00,VWS V14.01,2013-01-21 23:13:00,
2013-01-21 18:15:00,21.8,17.4,29.87,SW,217,0.0,0.0,83,0.00,,BKN200,0.00,VWS V14.01,2013-01-21 23:15:00,
2013-01-21 18:18:00,21.9,17.5,29.87,SW,217,0.0,0.0,83,0.00,,,0.00,VWS V14.01,2013-01-21 23:18:00,
2013-01-21 18:20:00,21.8,17.7,29.87,SW,217,0.0,0.0,84,0.00,,BKN200,0.00,VWS V14.01,2013-01-21 23:20:00,
2013-01-21 18:23:00,21.9,17.5,29.87,SW,217,0.0,0.0,83,0.00,,,0.00,VWS V14.01,2013-01-21 23:23:00,
2013-01-21 18:25:00,21.9,17.8,29.87,SW,217,0.0,0.0,84,0.00,,BKN200,0.00,VWS V14.01,2013-01-21 23:25:00,
2013-01-21 18:28:00,21.9,17.5,29.88,SW,217,0.0,0.0,83,0.00,,,0.00,VWS V14.01,2013-01-21 23:28:00,
2013-01-21 18:30:00,21.9,17.8,29.87,SW,217,0.0,0.0,84,0.00,,BKN200,0.00,VWS V14.01,2013-01-21 23:30:00,
2013-01-21 18:33:00,21.9,17.5,29.87,SW,217,0.0,0.0,83,0.00,,,0.00,VWS V14.01,2013-01-21 23:33:00,
2013-01-21 18:35:00,21.9,17.8,29.87,SW,217,0.0,0.0,84,0.00,,BKN200,0.00,VWS V14.01,2013-01-21 23:35:00,
2013-01-21 18:38:00,21.9,17.5,29.87,SW,217,0.0,0.0,83,0.00,,,0.00,VWS V14.01,2013-01-21 23:38:00,
2013-01-21 18:40:00,22.1,18.0,29.87,SW,217,0.0,0.0,84,0.00,,BKN200,0.00,VWS V14.01,2013-01-21 23:40:00,
2013-01-21 18:43:00,21.9,17.5,29.87,SW,217,0.0,0.0,83,0.00,,,0.00,VWS V14.01,2013-01-21 23:43:00,
2013-01-21 18:45:00,22.1,18.0,29.87,SW,217,0.0,0.0,84,0.00,,BKN200,0.00,VWS V14.01,2013-01-21 23:45:00,
2013-01-21 18:48:00,21.9,17.5,29.87,SW,217,0.0,0.0,83,0.00,,,0.00,VWS V14.01,2013-01-21 23:48:00,
2013-01-21 18:50:00,22.1,18.0,29.87,SW,217,0.0,0.0,84,0.00,,BKN200,0.00,VWS V14.01,2013-01-21 23:50:00,
2013-01-21 18:53:00,21.9,17.5,29.86,SW,217,0.0,0.0,83,0.00,,,0.00,VWS V14.01,2013-01-21 23:53:00,
2013-01-21 18:55:00,22.1,18.0,29.86,SW,217,0.0,0.0,84,0.00,,BKN200,0.00,VWS V14.01,2013-01-21 23:55:00,
2013-01-21 18:58:00,21.9,17.5,29.86,SW,217,0.0,0.0,83,0.00,,,0.00,VWS V14.01,2013-01-21 23:58:00,
2013-01-21 19:00:00,22.2,18.1,29.87,SW,217,0.0,0.0,84,0.00,,BKN200,0.00,VWS V14.01,2013-01-22 00:00:00,
2013-01-21 19:03:00,21.9,17.5,29.86,SW,217,0.0,0.0,83,0.00,,,0.00,VWS V14.01,2013-01-22 00:03:00,
2013-01-21 19:05:00,22.2,18.1,29.87,SW,217,0.0,0.0,84,0.00,,BKN200,0.00,VWS V14.01,2013-01-22 00:05:00,
2013-01-21 19:08:00,21.8,17.4,29.87,SW,217,0.0,0.0,83,0.00,,,0.00,VWS V14.01,2013-01-22 00:08:00,
2013-01-21 19:10:00,22.2,18.1,29.86,SW,217,0.0,0.0,84,0.00,,BKN200,0.00,VWS V14.01,2013-01-22 00:10:00,
2013-01-21 19:13:00,21.8,17.4,29.87,SW,217,0.0,0.0,83,0.00,,,0.00,VWS V14.01,2013-01-22 00:13:00,
2013-01-21 19:15:00,22.2,18.1,29.85,SW,217,0.0,0.0,84,0.00,,BKN200,0.00,VWS V14.01,2013-01-22 00:15:00,
2013-01-21 19:18:00,21.8,17.7,29.87,SW,217,0.0,0.0,84,0.00,,,0.00,VWS V14.01,2013-01-22 00:18:00,
2013-01-21 19:20:00,22.2,18.1,29.85,SW,217,0.0,0.0,84,0.00,,BKN200,0.00,VWS V14.01,2013-01-22 00:20:00,
2013-01-21 19:23:00,21.8,17.7,29.87,SW,217,0.0,0.0,84,0.00,,,0.00,VWS V14.01,2013-01-22 00:23:00,
2013-01-21 19:25:00,22.1,18.0,29.85,SW,217,0.0,0.0,84,0.00,,BKN200,0.00,VWS V14.01,2013-01-22 00:25:00,
2013-01-21 19:28:00,21.9,17.8,29.87,SW,217,0.0,0.0,84,0.00,,,0.00,VWS V14.01,2013-01-22 00:28:00,
2013-01-21 19:30:00,21.9,17.8,29.85,SW,217,0.0,0.0,84,0.00,,BKN200,0.00,VWS V14.01,2013-01-22 00:30:00,
2013-01-21 19:33:00,21.9,17.8,29.87,SW,217,0.0,0.0,84,0.00,,,0.00,VWS V14.01,2013-01-22 00:33:00,
2013-01-21 19:35:00,21.8,17.7,29.84,SW,217,0.0,0.0,84,0.00,,BKN200,0.00,VWS V14.01,2013-01-22 00:35:00,
2013-01-21 19:38:00,22.1,18.0,29.87,SW,217,0.0,0.0,84,0.00,,,0.00,VWS V14.01,2013-01-22 00:38:00,
2013-01-21 19:40:00,21.6,17.5,29.84,SW,217,0.0,0.0,84,0.00,,BKN200,0.00,VWS V14.01,2013-01-22 00:40:00,
2013-01-21 19:43:00,22.1,18.0,29.87,SW,217,0.0,0.0,84,0.00,,,0.00,VWS V14.01,2013-01-22 00:43:00,
2013-01-21 19:45:00,21.4,17.3,29.84,SW,217,0.0,0.0,84,0.00,,BKN200,0.00,VWS V14.01,2013-01-22 00:45:00,
2013-01-21 19:48:00,22.1,18.0,29.87,SW,217,0.0,0.0,84,0.00,,,0.00,VWS V14.01,2013-01-22 00:48:00,
2013-01-21 19:50:00,21.1,17.0,29.85,SW,217,0.0,0.0,84,0.00,,BKN200,0.00,VWS V14.01,2013-01-22 00:50:00,
2013-01-21 19:53:00,22.1,18.0,29.87,SW,217,0.0,0.0,84,0.00,,,0.00,VWS V14.01,2013-01-22 00:53:00,
2013-01-21 19:55:00,21.0,16.9,29.85,SW,217,0.0,0.0,84,0.00,,BKN200,0.00,VWS V14.01,2013-01-22 00:55:00,
2013-01-21 19:58:00,22.1,18.0,29.86,SW,217,0.0,0.0,84,0.00,,,0.00,VWS V14.01,2013-01-22 00:58:00,
2013-01-21 20:00:00,21.0,16.9,29.84,SW,217,0.0,0.0,84,0.00,,BKN200,0.00,VWS V14.01,2013-01-22 01:00:00,
2013-01-21 20:03:00,22.2,18.1,29.87,SW,217,0.0,0.0,84,0.00,,,0.00,VWS V14.01,2013-01-22 01:03:00,
2013-01-21 20:05:00,20.8,16.7,29.84,SW,217,0.0,0.0,84,0.00,,BKN200,0.00,VWS V14.01,2013-01-22 01:05:00,
2013-01-21 20:08:00,22.2,18.1,29.86,SW,217,0.0,0.0,84,0.00,,,0.00,VWS V14.01,2013-01-22 01:08:00,
2013-01-21 20:10:00,20.8,16.7,29.84,SW,217,0.0,0.0,84,0.00,,BKN200,0.00,VWS V14.01,2013-01-22 01:10:00,
2013-01-21 20:13:00,22.2,18.1,29.86,SW,217,0.0,0.0,84,0.00,,,0.00,VWS V14.01,2013-01-22 01:13:00,
2013-01-21 20:15:00,20.8,16.7,29.84,SW,217,0.0,0.0,84,0.00,,BKN200,0.00,VWS V14.01,2013-01-22 01:15:00,
2013-01-21 20:18:00,22.2,18.1,29.85,SW,217,0.0,0.0,84,0.00,,,0.00,VWS V14.01,2013-01-22 01:18:00,
2013-01-21 20:20:00,21.0,16.9,29.84,SW,217,0.0,0.0,84,0.00,,BKN200,0.00,VWS V14.01,2013-01-22 01:20:00,
2013-01-21 20:23:00,22.1,18.0,29.85,SW,217,0.0,0.0,84,0.00,,,0.00,VWS V14.01,2013-01-22 01:23:00,
2013-01-21 20:25:00,21.0,16.9,29.83,SW,217,0.0,0.0,84,0.00,,BKN200,0.00,VWS V14.01,2013-01-22 01:25:00,
2013-01-21 20:28:00,22.1,18.0,29.85,SW,217,0.0,0.0,84,0.00,,,0.00,VWS V14.01,2013-01-22 01:28:00,
2013-01-21 20:30:00,20.8,17.0,29.83,SW,217,0.0,0.0,85,0.00,,BKN200,0.00,VWS V14.01,2013-01-22 01:30:00,
2013-01-21 20:33:00,21.9,17.8,29.84,SW,217,0.0,0.0,84,0.00,,,0.00,VWS V14.01,2013-01-22 01:33:00,
2013-01-21 20:35:00,20.8,16.7,29.82,SW,217,0.0,0.0,84,0.00,,BKN200,0.00,VWS V14.01,2013-01-22 01:35:00,
2013-01-21 20:38:00,21.6,17.5,29.84,SW,217,0.0,0.0,84,0.00,,,0.00,VWS V14.01,2013-01-22 01:38:00,
2013-01-21 20:40:00,20.6,16.5,29.82,SW,217,0.0,0.0,84,0.00,,BKN200,0.00,VWS V14.01,2013-01-22 01:40:00,
2013-01-21 20:43:00,21.4,17.3,29.84,SW,217,0.0,0.0,84,0.00,,,0.00,VWS V14.01,2013-01-22 01:43:00,
2013-01-21 20:45:00,20.5,16.4,29.82,SW,217,0.0,0.0,84,0.00,,BKN200,0.00,VWS V14.01,2013-01-22 01:45:00,
2013-01-21 20:48:00,21.3,17.2,29.84,SW,217,0.0,0.0,84,0.00,,,0.00,VWS V14.01,2013-01-22 01:48:00,
2013-01-21 20:50:00,20.3,16.2,29.82,SW,217,0.0,0.0,84,0.00,,BKN200,0.00,VWS V14.01,2013-01-22 01:50:00,
2013-01-21 20:53:00,21.1,17.0,29.85,SW,217,0.0,0.0,84,0.00,,,0.00,VWS V14.01,2013-01-22 01:53:00,
2013-01-21 20:55:00,20.2,16.1,29.82,SW,217,0.0,0.0,84,0.00,,BKN200,0.00,VWS V14.01,2013-01-22 01:55:00,
2013-01-21 20:58:00,21.0,16.9,29.84,SW,217,0.0,0.0,84,0.00,,,0.00,VWS V14.01,2013-01-22 01:58:00,
2013-01-21 21:00:00,20.0,15.9,29.82,SW,217,0.0,0.0,84,0.00,,BKN200,0.00,VWS V14.01,2013-01-22 02:00:00,
2013-01-21 21:03:00,20.8,16.7,29.84,SW,217,0.0,0.0,84,0.00,,,0.00,VWS V14.01,2013-01-22 02:03:00,
2013-01-21 21:05:00,20.0,16.2,29.82,SW,217,0.0,0.0,85,0.00,,BKN200,0.00,VWS V14.01,2013-01-22 02:05:00,
2013-01-21 21:08:00,20.8,16.7,29.84,SW,217,0.0,0.0,84,0.00,,,0.00,VWS V14.01,2013-01-22 02:08:00,
2013-01-21 21:10:00,20.0,16.2,29.81,SW,217,0.0,0.0,85,0.00,,BKN200,0.00,VWS V14.01,2013-01-22 02:10:00,
2013-01-21 21:13:00,20.8,16.7,29.84,SW,217,0.0,0.0,84,0.00,,,0.00,VWS V14.01,2013-01-22 02:13:00,
2013-01-21 21:15:00,20.0,16.2,29.80,SW,217,0.0,0.0,85,0.00,,BKN200,0.00,VWS V14.01,2013-01-22 02:15:00,
2013-01-21 21:18:00,21.0,16.9,29.84,SW,217,0.0,0.0,84,0.00,,,0.00,VWS V14.01,2013-01-22 02:18:00,
2013-01-21 21:20:00,20.0,16.2,29.81,SW,217,0.0,0.0,85,0.00,,BKN200,0.00,VWS V14.01,2013-01-22 02:20:00,
2013-01-21 21:23:00,21.0,17.2,29.83,SW,217,0.0,0.0,85,0.00,,,0.00,VWS V14.01,2013-01-22 02:23:00,
2013-01-21 21:25:00,20.0,16.2,29.81,SW,217,0.0,0.0,85,0.00,,BKN200,0.00,VWS V14.01,2013-01-22 02:25:00,
2013-01-21 21:28:00,21.0,17.2,29.83,SW,217,0.0,0.0,85,0.00,,,0.00,VWS V14.01,2013-01-22 02:28:00,
2013-01-21 21:30:00,20.0,16.2,29.80,SW,217,0.0,0.0,85,0.00,,BKN200,0.00,VWS V14.01,2013-01-22 02:30:00,
2013-01-21 21:33:00,20.8,16.7,29.82,SW,217,0.0,0.0,84,0.00,,,0.00,VWS V14.01,2013-01-22 02:33:00,
2013-01-21 21:35:00,20.0,16.2,29.80,SW,217,0.0,0.0,85,0.00,,BKN200,0.00,VWS V14.01,2013-01-22 02:35:00,
2013-01-21 21:39:00,20.6,16.5,29.82,SW,217,0.0,0.0,84,0.00,,,0.00,VWS V14.01,2013-01-22 02:39:00,
2013-01-21 21:40:00,20.0,16.5,29.80,SW,217,0.0,0.0,86,0.00,,BKN200,0.00,VWS V14.01,2013-01-22 02:40:00,
2013-01-21 21:43:00,20.5,16.4,29.82,SW,217,0.0,0.0,84,0.00,,,0.00,VWS V14.01,2013-01-22 02:43:00,
2013-01-21 21:45:00,19.9,16.4,29.79,SW,217,0.0,0.0,86,0.00,,BKN200,0.00,VWS V14.01,2013-01-22 02:45:00,
2013-01-21 21:49:00,20.3,16.2,29.81,SW,217,0.0,0.0,84,0.00,,,0.00,VWS V14.01,2013-01-22 02:49:00,
2013-01-21 21:50:00,19.7,16.2,29.80,SW,217,0.0,0.0,86,0.00,,BKN200,0.00,VWS V14.01,2013-01-22 02:50:00,
2013-01-21 21:54:00,20.2,16.1,29.82,SW,217,0.0,0.0,84,0.00,,,0.00,VWS V14.01,2013-01-22 02:54:00,
2013-01-21 21:55:00,19.7,16.2,29.80,SW,217,0.0,0.0,86,0.00,,BKN200,0.00,VWS V14.01,2013-01-22 02:55:00,
2013-01-21 21:59:00,20.0,15.9,29.82,SW,217,0.0,0.0,84,0.00,,,0.00,VWS V14.01,2013-01-22 02:59:00,
2013-01-21 22:00:00,19.5,16.0,29.80,SW,217,0.0,0.0,86,0.00,,BKN200,0.00,VWS V14.01,2013-01-22 03:00:00,
2013-01-21 22:04:00,20.0,16.2,29.82,SW,217,0.0,0.0,85,0.00,,,0.00,VWS V14.01,2013-01-22 03:04:00,
2013-01-21 22:05:00,19.5,16.0,29.80,SW,217,0.0,0.0,86,0.00,,BKN200,0.00,VWS V14.01,2013-01-22 03:05:00,
2013-01-21 22:09:00,20.0,16.2,29.81,SW,217,0.0,0.0,85,0.00,,,0.00,VWS V14.01,2013-01-22 03:09:00,
2013-01-21 22:10:00,19.4,15.9,29.79,SW,217,0.0,0.0,86,0.00,,BKN200,0.00,VWS V14.01,2013-01-22 03:10:00,
2013-01-21 22:14:00,20.0,16.2,29.80,SW,217,0.0,0.0,85,0.00,,,0.00,VWS V14.01,2013-01-22 03:14:00,
2013-01-21 22:15:00,19.4,15.9,29.79,SW,217,0.0,0.0,86,0.00,,BKN200,0.00,VWS V14.01,2013-01-22 03:15:00,
2013-01-21 22:19:00,20.0,16.2,29.81,SW,217,0.0,0.0,85,0.00,,,0.00,VWS V14.01,2013-01-22 03:19:00,
2013-01-21 22:20:00,19.2,15.7,29.79,SW,217,0.0,0.0,86,0.00,,BKN200,0.00,VWS V14.01,2013-01-22 03:20:00,
2013-01-21 22:24:00,20.0,16.2,29.81,SW,217,0.0,0.0,85,0.00,,,0.00,VWS V14.01,2013-01-22 03:24:00,
2013-01-21 22:25:00,19.2,15.7,29.78,SW,217,0.0,0.0,86,0.00,,BKN200,0.00,VWS V14.01,2013-01-22 03:25:00,
2013-01-21 22:29:00,20.0,16.2,29.80,SW,217,0.0,0.0,85,0.00,,,0.00,VWS V14.01,2013-01-22 03:29:00,
2013-01-21 22:30:00,19.1,15.6,29.78,SW,217,0.0,0.0,86,0.00,,BKN200,0.00,VWS V14.01,2013-01-22 03:30:00,
2013-01-21 22:34:00,20.0,16.2,29.80,SW,217,0.0,0.0,85,0.00,,,0.00,VWS V14.01,2013-01-22 03:34:00,
2013-01-21 22:35:00,18.9,15.4,29.77,SW,217,0.0,0.0,86,0.00,,BKN200,0.00,VWS V14.01,2013-01-22 03:35:00,
2013-01-21 22:39:00,20.0,16.5,29.80,SW,217,0.0,0.0,86,0.00,,,0.00,VWS V14.01,2013-01-22 03:39:00,
2013-01-21 22:40:00,18.8,15.3,29.76,SW,217,0.0,0.0,86,0.00,,BKN200,0.00,VWS V14.01,2013-01-22 03:40:00,
2013-01-21 22:44:00,19.9,16.4,29.79,SW,217,0.0,0.0,86,0.00,,,0.00,VWS V14.01,2013-01-22 03:44:00,
2013-01-21 22:45:00,18.6,15.1,29.76,SW,217,0.0,0.0,86,0.00,,BKN200,0.00,VWS V14.01,2013-01-22 03:45:00,
2013-01-21 22:49:00,19.9,16.4,29.80,SW,217,0.0,0.0,86,0.00,,,0.00,VWS V14.01,2013-01-22 03:49:00,
2013-01-21 22:50:00,18.3,14.8,29.76,SW,217,0.0,0.0,86,0.00,,BKN200,0.00,VWS V14.01,2013-01-22 03:50:00,
2013-01-21 22:54:00,19.7,16.2,29.80,SW,217,0.0,0.0,86,0.00,,,0.00,VWS V14.01,2013-01-22 03:54:00,
2013-01-21 22:55:00,18.0,14.5,29.76,SW,217,0.0,0.0,86,0.00,,BKN200,0.00,VWS V14.01,2013-01-22 03:55:00,
2013-01-21 22:59:00,19.5,16.0,29.80,SW,217,0.0,0.0,86,0.00,,,0.00,VWS V14.01,2013-01-22 03:59:00,
2013-01-21 23:00:00,17.8,14.3,29.76,SW,217,0.0,0.0,86,0.00,,BKN200,0.00,VWS V14.01,2013-01-22 04:00:00,
2013-01-21 23:04:00,19.5,16.0,29.80,SW,217,0.0,0.0,86,0.00,,BKN120,0.00,VWS V14.01,2013-01-22 04:04:00,
2013-01-21 23:05:00,17.7,14.2,29.76,SW,217,0.0,0.0,86,0.00,,BKN200,0.00,VWS V14.01,2013-01-22 04:05:00,
2013-01-21 23:09:00,19.4,15.9,29.79,SW,217,0.0,0.0,86,0.00,,BKN120,0.00,VWS V14.01,2013-01-22 04:09:00,
2013-01-21 23:10:00,17.3,13.8,29.76,SW,217,0.0,0.0,86,0.00,,BKN200,0.00,VWS V14.01,2013-01-22 04:10:00,
2013-01-21 23:14:00,19.4,15.9,29.79,SW,217,0.0,0.0,86,0.00,,BKN120,0.00,VWS V14.01,2013-01-22 04:14:00,
2013-01-21 23:15:00,17.2,13.7,29.76,SW,217,0.0,0.0,86,0.00,,BKN200,0.00,VWS V14.01,2013-01-22 04:15:00,
2013-01-21 23:19:00,19.2,15.7,29.79,SW,217,0.0,0.0,86,0.00,,,0.00,VWS V14.01,2013-01-22 04:19:00,
2013-01-21 23:20:00,17.0,13.5,29.76,SW,217,0.0,0.0,86,0.00,,BKN200,0.00,VWS V14.01,2013-01-22 04:20:00,
2013-01-21 23:24:00,19.2,15.7,29.79,SW,217,0.0,0.0,86,0.00,,,0.00,VWS V14.01,2013-01-22 04:24:00,
2013-01-21 23:25:00,16.9,13.4,29.76,SW,217,0.0,0.0,86,0.00,,BKN200,0.00,VWS V14.01,2013-01-22 04:25:00,
2013-01-21 23:29:00,19.1,15.6,29.78,SW,217,0.0,0.0,86,0.00,,,0.00,VWS V14.01,2013-01-22 04:29:00,
2013-01-21 23:30:00,16.9,13.2,29.76,SW,217,0.0,0.0,85,0.00,,BKN200,0.00,VWS V14.01,2013-01-22 04:30:00,
2013-01-21 23:34:00,19.1,15.6,29.78,SW,217,0.0,0.0,86,0.00,,,0.00,VWS V14.01,2013-01-22 04:34:00,
2013-01-21 23:35:00,16.7,13.0,29.76,SW,217,0.0,0.0,85,0.00,,BKN200,0.00,VWS V14.01,2013-01-22 04:35:00,
2013-01-21 23:39:00,18.9,15.4,29.77,SW,217,0.0,0.0,86,0.00,,,0.00,VWS V14.01,2013-01-22 04:39:00,
2013-01-21 23:40:00,16.5,12.8,29.76,SW,217,0.0,0.0,85,0.00,,BKN200,0.00,VWS V14.01,2013-01-22 04:40:00,
2013-01-21 23:44:00,18.6,15.1,29.76,SW,217,0.0,0.0,86,0.00,,,0.00,VWS V14.01,2013-01-22 04:44:00,
2013-01-21 23:45:00,16.4,12.7,29.76,SW,217,0.0,0.0,85,0.00,,BKN200,0.00,VWS V14.01,2013-01-22 04:45:00,
2013-01-21 23:49:00,18.4,14.9,29.76,SW,217,0.0,0.0,86,0.00,,,0.00,VWS V14.01,2013-01-22 04:49:00,
2013-01-21 23:50:00,16.4,12.7,29.76,SW,217,0.0,0.0,85,0.00,,BKN200,0.00,VWS V14.01,2013-01-22 04:50:00,
2013-01-21 23:54:00,18.1,14.6,29.76,SW,217,0.0,0.0,86,0.00,,,0.00,VWS V14.01,2013-01-22 04:54:00,
2013-01-21 23:55:00,16.2,12.5,29.76,SW,217,0.0,0.0,85,0.00,,BKN200,0.00,VWS V14.01,2013-01-22 04:55:00,
2013-01-21 23:59:00,17.8,14.3,29.76,SW,217,0.0,0.0,86,0.00,,,0.00,VWS V14.01,2013-01-22 04:59:00,